sensor_id;sensor_type;location;lat;lon;timestamp;temperature;humidity
69009;SHT31;56065;52.472;13.380;2023-11-21T00:00:48;10.91;93.98
69009;SHT31;56065;52.472;13.380;2023-11-21T00:03:14;10.91;93.83
69009;SHT31;56065;52.472;13.380;2023-11-21T00:05:40;10.94;92.98
69009;SHT31;56065;52.472;13.380;2023-11-21T00:08:07;10.72;93.47
69009;SHT31;56065;52.472;13.380;2023-11-21T00:10:33;10.91;93.08
69009;SHT31;56065;52.472;13.380;2023-11-21T00:12:58;10.88;93.01
69009;SHT31;56065;52.472;13.380;2023-11-21T00:15:23;10.76;92.96
69009;SHT31;56065;52.472;13.380;2023-11-21T00:17:49;10.76;93.08
69009;SHT31;56065;52.472;13.380;2023-11-21T00:20:14;10.76;93.20
69009;SHT31;56065;52.472;13.380;2023-11-21T00:22:40;10.51;92.94
69009;SHT31;56065;52.472;13.380;2023-11-21T00:25:06;10.41;93.21
69009;SHT31;56065;52.472;13.380;2023-11-21T00:27:34;10.25;93.34
69009;SHT31;56065;52.472;13.380;2023-11-21T00:30:00;10.33;93.14
69009;SHT31;56065;52.472;13.380;2023-11-21T00:32:25;10.24;93.15
69009;SHT31;56065;52.472;13.380;2023-11-21T00:34:51;10.33;92.60
69009;SHT31;56065;52.472;13.380;2023-11-21T00:37:16;10.18;93.01
69009;SHT31;56065;52.472;13.380;2023-11-21T00:39:41;10.20;92.76
69009;SHT31;56065;52.472;13.380;2023-11-21T00:42:07;10.10;92.53
69009;SHT31;56065;52.472;13.380;2023-11-21T00:44:33;10.02;93.15
69009;SHT31;56065;52.472;13.380;2023-11-21T00:46:59;9.93;92.97
69009;SHT31;56065;52.472;13.380;2023-11-21T00:49:24;9.97;93.11
69009;SHT31;56065;52.472;13.380;2023-11-21T00:51:50;9.85;93.17
69009;SHT31;56065;52.472;13.380;2023-11-21T00:54:15;9.90;93.25
69009;SHT31;56065;52.472;13.380;2023-11-21T00:56:42;9.89;93.26
69009;SHT31;56065;52.472;13.380;2023-11-21T00:59:08;9.85;93.14
69009;SHT31;56065;52.472;13.380;2023-11-21T01:01:33;9.85;93.36
69009;SHT31;56065;52.472;13.380;2023-11-21T01:03:59;9.71;93.15
69009;SHT31;56065;52.472;13.380;2023-11-21T01:06:24;9.72;93.31
69009;SHT31;56065;52.472;13.380;2023-11-21T01:08:50;9.68;92.89
69009;SHT31;56065;52.472;13.380;2023-11-21T01:11:15;9.68;92.71
69009;SHT31;56065;52.472;13.380;2023-11-21T01:13:41;9.58;92.74
69009;SHT31;56065;52.472;13.380;2023-11-21T01:16:08;9.68;92.81
69009;SHT31;56065;52.472;13.380;2023-11-21T01:18:33;9.58;92.63
69009;SHT31;56065;52.472;13.380;2023-11-21T01:21:00;9.44;92.42
69009;SHT31;56065;52.472;13.380;2023-11-21T01:23:25;9.42;92.45
69009;SHT31;56065;52.472;13.380;2023-11-21T01:25:52;9.44;92.30
69009;SHT31;56065;52.472;13.380;2023-11-21T01:28:18;9.41;92.84
69009;SHT31;56065;52.472;13.380;2023-11-21T01:30:43;9.42;92.52
69009;SHT31;56065;52.472;13.380;2023-11-21T01:33:09;9.27;92.58
69009;SHT31;56065;52.472;13.380;2023-11-21T01:35:35;9.28;92.44
69009;SHT31;56065;52.472;13.380;2023-11-21T01:38:01;9.21;92.45
69009;SHT31;56065;52.472;13.380;2023-11-21T01:40:26;9.17;92.64
69009;SHT31;56065;52.472;13.380;2023-11-21T01:42:53;9.18;92.64
69009;SHT31;56065;52.472;13.380;2023-11-21T01:45:18;9.18;92.87
69009;SHT31;56065;52.472;13.380;2023-11-21T01:47:45;9.13;93.04
69009;SHT31;56065;52.472;13.380;2023-11-21T01:50:15;9.14;92.61
69009;SHT31;56065;52.472;13.380;2023-11-21T01:52:44;9.10;92.75
69009;SHT31;56065;52.472;13.380;2023-11-21T01:55:10;9.07;92.67
69009;SHT31;56065;52.472;13.380;2023-11-21T01:57:36;9.04;92.77
69009;SHT31;56065;52.472;13.380;2023-11-21T02:00:05;9.07;93.13
69009;SHT31;56065;52.472;13.380;2023-11-21T02:02:46;9.22;92.33
69009;SHT31;56065;52.472;13.380;2023-11-21T02:05:14;9.10;91.98
69009;SHT31;56065;52.472;13.380;2023-11-21T02:07:41;9.05;92.35
69009;SHT31;56065;52.472;13.380;2023-11-21T02:10:08;8.84;91.48
69009;SHT31;56065;52.472;13.380;2023-11-21T02:12:34;8.83;91.95
69009;SHT31;56065;52.472;13.380;2023-11-21T02:15:03;8.88;91.93
69009;SHT31;56065;52.472;13.380;2023-11-21T02:17:34;8.84;92.30
69009;SHT31;56065;52.472;13.380;2023-11-21T02:20:00;8.76;92.06
69009;SHT31;56065;52.472;13.380;2023-11-21T02:22:29;8.64;91.80
69009;SHT31;56065;52.472;13.380;2023-11-21T02:24:55;8.84;92.32
69009;SHT31;56065;52.472;13.380;2023-11-21T02:27:23;8.81;91.96
69009;SHT31;56065;52.472;13.380;2023-11-21T02:29:49;8.85;91.63
69009;SHT31;56065;52.472;13.380;2023-11-21T02:32:14;8.74;91.79
69009;SHT31;56065;52.472;13.380;2023-11-21T02:34:39;8.67;91.76
69009;SHT31;56065;52.472;13.380;2023-11-21T02:37:05;8.79;91.67
69009;SHT31;56065;52.472;13.380;2023-11-21T02:39:31;8.85;91.73
69009;SHT31;56065;52.472;13.380;2023-11-21T02:41:57;8.88;91.89
69009;SHT31;56065;52.472;13.380;2023-11-21T02:44:22;8.83;91.84
69009;SHT31;56065;52.472;13.380;2023-11-21T02:46:47;8.88;91.62
69009;SHT31;56065;52.472;13.380;2023-11-21T02:49:13;8.96;91.84
69009;SHT31;56065;52.472;13.380;2023-11-21T02:51:38;8.97;91.89
69009;SHT31;56065;52.472;13.380;2023-11-21T02:54:05;9.00;91.41
69009;SHT31;56065;52.472;13.380;2023-11-21T02:56:32;8.88;91.44
69009;SHT31;56065;52.472;13.380;2023-11-21T02:58:59;8.94;91.57
69009;SHT31;56065;52.472;13.380;2023-11-21T03:01:25;8.80;91.83
69009;SHT31;56065;52.472;13.380;2023-11-21T03:03:51;8.90;91.67
69009;SHT31;56065;52.472;13.380;2023-11-21T03:06:19;8.90;91.45
69009;SHT31;56065;52.472;13.380;2023-11-21T03:08:45;8.81;91.55
69009;SHT31;56065;52.472;13.380;2023-11-21T03:11:11;8.77;91.63
69009;SHT31;56065;52.472;13.380;2023-11-21T03:13:38;8.79;91.46
69009;SHT31;56065;52.472;13.380;2023-11-21T03:16:04;8.73;91.76
69009;SHT31;56065;52.472;13.380;2023-11-21T03:18:29;8.62;91.77
69009;SHT31;56065;52.472;13.380;2023-11-21T03:20:55;8.76;91.34
69009;SHT31;56065;52.472;13.380;2023-11-21T03:23:20;8.67;91.47
69009;SHT31;56065;52.472;13.380;2023-11-21T03:25:45;8.64;91.61
69009;SHT31;56065;52.472;13.380;2023-11-21T03:28:11;8.60;91.95
69009;SHT31;56065;52.472;13.380;2023-11-21T03:30:36;8.66;91.47
69009;SHT31;56065;52.472;13.380;2023-11-21T03:33:01;8.60;91.39
69009;SHT31;56065;52.472;13.380;2023-11-21T03:35:27;8.69;91.51
69009;SHT31;56065;52.472;13.380;2023-11-21T03:37:53;8.45;91.44
69009;SHT31;56065;52.472;13.380;2023-11-21T03:40:18;8.41;91.82
69009;SHT31;56065;52.472;13.380;2023-11-21T03:42:43;8.35;91.93
69009;SHT31;56065;52.472;13.380;2023-11-21T03:45:09;8.39;91.54
69009;SHT31;56065;52.472;13.380;2023-11-21T03:47:35;8.38;91.45
69009;SHT31;56065;52.472;13.380;2023-11-21T03:50:00;8.43;90.96
69009;SHT31;56065;52.472;13.380;2023-11-21T03:52:26;8.28;90.65
69009;SHT31;56065;52.472;13.380;2023-11-21T03:54:52;8.38;91.39
69009;SHT31;56065;52.472;13.380;2023-11-21T03:57:17;8.26;90.56
69009;SHT31;56065;52.472;13.380;2023-11-21T03:59:43;8.41;90.20
69009;SHT31;56065;52.472;13.380;2023-11-21T04:02:09;8.24;90.36
69009;SHT31;56065;52.472;13.380;2023-11-21T04:04:35;8.22;90.75
69009;SHT31;56065;52.472;13.380;2023-11-21T04:07:01;8.22;90.92
69009;SHT31;56065;52.472;13.380;2023-11-21T04:09:26;8.25;90.93
69009;SHT31;56065;52.472;13.380;2023-11-21T04:11:52;8.08;90.68
69009;SHT31;56065;52.472;13.380;2023-11-21T04:14:18;8.06;90.76
69009;SHT31;56065;52.472;13.380;2023-11-21T04:16:43;8.20;90.24
69009;SHT31;56065;52.472;13.380;2023-11-21T04:19:09;8.05;90.18
69009;SHT31;56065;52.472;13.380;2023-11-21T04:21:36;7.99;90.04
69009;SHT31;56065;52.472;13.380;2023-11-21T04:24:01;7.97;90.14
69009;SHT31;56065;52.472;13.380;2023-11-21T04:26:27;8.02;90.15
69009;SHT31;56065;52.472;13.380;2023-11-21T04:28:52;8.02;90.31
69009;SHT31;56065;52.472;13.380;2023-11-21T04:31:17;8.09;90.57
69009;SHT31;56065;52.472;13.380;2023-11-21T04:33:42;7.92;89.78
69009;SHT31;56065;52.472;13.380;2023-11-21T04:36:10;7.98;89.99
69009;SHT31;56065;52.472;13.380;2023-11-21T04:38:35;8.06;90.00
69009;SHT31;56065;52.472;13.380;2023-11-21T04:41:01;8.18;90.15
69009;SHT31;56065;52.472;13.380;2023-11-21T04:43:26;8.12;90.10
69009;SHT31;56065;52.472;13.380;2023-11-21T04:45:51;8.09;89.63
69009;SHT31;56065;52.472;13.380;2023-11-21T04:48:17;7.92;89.55
69009;SHT31;56065;52.472;13.380;2023-11-21T04:50:42;7.87;89.69
69009;SHT31;56065;52.472;13.380;2023-11-21T04:53:07;7.91;89.55
69009;SHT31;56065;52.472;13.380;2023-11-21T04:55:33;7.97;89.35
69009;SHT31;56065;52.472;13.380;2023-11-21T04:57:58;7.92;89.34
69009;SHT31;56065;52.472;13.380;2023-11-21T05:00:23;7.91;89.77
69009;SHT31;56065;52.472;13.380;2023-11-21T05:02:49;7.94;89.63
69009;SHT31;56065;52.472;13.380;2023-11-21T05:05:14;7.99;89.83
69009;SHT31;56065;52.472;13.380;2023-11-21T05:07:40;7.88;89.91
69009;SHT31;56065;52.472;13.380;2023-11-21T05:10:07;7.88;89.65
69009;SHT31;56065;52.472;13.380;2023-11-21T05:12:40;7.97;89.74
69009;SHT31;56065;52.472;13.380;2023-11-21T05:15:06;7.91;89.38
69009;SHT31;56065;52.472;13.380;2023-11-21T05:17:35;8.01;89.15
69009;SHT31;56065;52.472;13.380;2023-11-21T05:20:01;7.84;89.15
69009;SHT31;56065;52.472;13.380;2023-11-21T05:22:34;7.84;89.60
69009;SHT31;56065;52.472;13.380;2023-11-21T05:24:59;7.97;89.61
69009;SHT31;56065;52.472;13.380;2023-11-21T05:27:25;7.82;89.21
69009;SHT31;56065;52.472;13.380;2023-11-21T05:29:50;7.78;89.04
69009;SHT31;56065;52.472;13.380;2023-11-21T05:32:16;7.87;89.32
69009;SHT31;56065;52.472;13.380;2023-11-21T05:34:42;7.92;89.35
69009;SHT31;56065;52.472;13.380;2023-11-21T05:37:08;7.94;89.28
69009;SHT31;56065;52.472;13.380;2023-11-21T05:39:33;7.77;90.22
69009;SHT31;56065;52.472;13.380;2023-11-21T05:41:58;7.90;88.95
69009;SHT31;56065;52.472;13.380;2023-11-21T05:44:25;7.88;89.52
69009;SHT31;56065;52.472;13.380;2023-11-21T05:46:50;7.81;89.74
69009;SHT31;56065;52.472;13.380;2023-11-21T05:49:17;7.80;88.65
69009;SHT31;56065;52.472;13.380;2023-11-21T05:51:42;7.77;89.46
69009;SHT31;56065;52.472;13.380;2023-11-21T05:54:07;7.88;88.69
69009;SHT31;56065;52.472;13.380;2023-11-21T05:56:33;7.80;89.20
69009;SHT31;56065;52.472;13.380;2023-11-21T05:58:59;7.57;88.27
69009;SHT31;56065;52.472;13.380;2023-11-21T06:01:25;7.54;88.20
69009;SHT31;56065;52.472;13.380;2023-11-21T06:03:53;7.51;88.86
69009;SHT31;56065;52.472;13.380;2023-11-21T06:06:19;7.49;88.96
69009;SHT31;56065;52.472;13.380;2023-11-21T06:08:44;7.54;89.45
69009;SHT31;56065;52.472;13.380;2023-11-21T06:11:10;7.57;88.50
69009;SHT31;56065;52.472;13.380;2023-11-21T06:13:36;7.66;88.90
69009;SHT31;56065;52.472;13.380;2023-11-21T06:16:03;7.50;88.46
69009;SHT31;56065;52.472;13.380;2023-11-21T06:18:29;7.46;88.89
69009;SHT31;56065;52.472;13.380;2023-11-21T06:20:55;7.60;88.47
69009;SHT31;56065;52.472;13.380;2023-11-21T06:23:20;7.66;88.67
69009;SHT31;56065;52.472;13.380;2023-11-21T06:25:45;7.74;89.27
69009;SHT31;56065;52.472;13.380;2023-11-21T06:28:11;7.75;88.26
69009;SHT31;56065;52.472;13.380;2023-11-21T06:30:36;7.69;88.61
69009;SHT31;56065;52.472;13.380;2023-11-21T06:33:01;7.67;87.71
69009;SHT31;56065;52.472;13.380;2023-11-21T06:35:27;7.69;87.48
69009;SHT31;56065;52.472;13.380;2023-11-21T06:37:55;7.75;88.01
69009;SHT31;56065;52.472;13.380;2023-11-21T06:40:20;7.74;87.62
69009;SHT31;56065;52.472;13.380;2023-11-21T06:42:46;7.67;87.50
69009;SHT31;56065;52.472;13.380;2023-11-21T06:45:12;7.69;87.58
69009;SHT31;56065;52.472;13.380;2023-11-21T06:47:38;7.46;87.01
69009;SHT31;56065;52.472;13.380;2023-11-21T06:50:04;7.59;88.05
69009;SHT31;56065;52.472;13.380;2023-11-21T06:52:29;7.64;87.73
69009;SHT31;56065;52.472;13.380;2023-11-21T06:54:54;7.53;87.31
69009;SHT31;56065;52.472;13.380;2023-11-21T06:57:20;7.44;87.51
69009;SHT31;56065;52.472;13.380;2023-11-21T06:59:45;7.56;87.82
69009;SHT31;56065;52.472;13.380;2023-11-21T07:02:11;7.54;88.05
69009;SHT31;56065;52.472;13.380;2023-11-21T07:04:36;7.51;88.13
69009;SHT31;56065;52.472;13.380;2023-11-21T07:07:03;7.51;87.37
69009;SHT31;56065;52.472;13.380;2023-11-21T07:09:28;7.44;87.96
69009;SHT31;56065;52.472;13.380;2023-11-21T07:11:54;7.43;87.70
69009;SHT31;56065;52.472;13.380;2023-11-21T07:14:20;7.39;88.67
69009;SHT31;56065;52.472;13.380;2023-11-21T07:16:46;7.43;88.79
69009;SHT31;56065;52.472;13.380;2023-11-21T07:19:12;7.47;88.56
69009;SHT31;56065;52.472;13.380;2023-11-21T07:21:39;7.47;87.99
69009;SHT31;56065;52.472;13.380;2023-11-21T07:24:05;7.36;89.01
69009;SHT31;56065;52.472;13.380;2023-11-21T07:26:34;7.44;88.64
69009;SHT31;56065;52.472;13.380;2023-11-21T07:29:03;7.47;87.84
69009;SHT31;56065;52.472;13.380;2023-11-21T07:31:29;7.53;87.75
69009;SHT31;56065;52.472;13.380;2023-11-21T07:33:54;7.49;87.87
69009;SHT31;56065;52.472;13.380;2023-11-21T07:36:23;7.40;87.76
69009;SHT31;56065;52.472;13.380;2023-11-21T07:38:49;7.42;88.41
69009;SHT31;56065;52.472;13.380;2023-11-21T07:41:14;7.53;88.22
69009;SHT31;56065;52.472;13.380;2023-11-21T07:43:45;7.32;87.52
69009;SHT31;56065;52.472;13.380;2023-11-21T07:46:11;7.29;87.44
69009;SHT31;56065;52.472;13.380;2023-11-21T07:48:42;7.32;87.81
69009;SHT31;56065;52.472;13.380;2023-11-21T07:51:08;7.40;87.74
69009;SHT31;56065;52.472;13.380;2023-11-21T07:53:34;7.46;87.52
69009;SHT31;56065;52.472;13.380;2023-11-21T07:56:03;7.57;87.30
69009;SHT31;56065;52.472;13.380;2023-11-21T07:58:29;7.51;87.63
69009;SHT31;56065;52.472;13.380;2023-11-21T08:00:54;7.63;86.96
69009;SHT31;56065;52.472;13.380;2023-11-21T08:03:20;7.42;87.34
69009;SHT31;56065;52.472;13.380;2023-11-21T08:05:46;7.47;87.28
69009;SHT31;56065;52.472;13.380;2023-11-21T08:08:11;7.51;87.33
69009;SHT31;56065;52.472;13.380;2023-11-21T08:10:36;7.60;86.90
69009;SHT31;56065;52.472;13.380;2023-11-21T08:13:02;7.54;86.64
69009;SHT31;56065;52.472;13.380;2023-11-21T08:15:29;7.63;86.59
69009;SHT31;56065;52.472;13.380;2023-11-21T08:17:54;7.60;87.33
69009;SHT31;56065;52.472;13.380;2023-11-21T08:20:19;7.61;87.90
69009;SHT31;56065;52.472;13.380;2023-11-21T08:22:45;7.54;87.98
69009;SHT31;56065;52.472;13.380;2023-11-21T08:25:12;7.36;86.97
69009;SHT31;56065;52.472;13.380;2023-11-21T08:27:38;7.27;86.41
69009;SHT31;56065;52.472;13.380;2023-11-21T08:30:04;7.34;86.20
69009;SHT31;56065;52.472;13.380;2023-11-21T08:32:30;7.34;85.96
69009;SHT31;56065;52.472;13.380;2023-11-21T08:35:01;7.33;86.59
69009;SHT31;56065;52.472;13.380;2023-11-21T08:37:26;7.37;86.05
69009;SHT31;56065;52.472;13.380;2023-11-21T08:39:58;7.57;86.40
69009;SHT31;56065;52.472;13.380;2023-11-21T08:42:24;7.60;86.25
69009;SHT31;56065;52.472;13.380;2023-11-21T08:44:49;7.53;86.42
69009;SHT31;56065;52.472;13.380;2023-11-21T08:47:15;7.56;86.67
69009;SHT31;56065;52.472;13.380;2023-11-21T08:49:40;7.53;86.68
69009;SHT31;56065;52.472;13.380;2023-11-21T08:52:05;7.57;87.10
69009;SHT31;56065;52.472;13.380;2023-11-21T08:54:31;7.54;86.30
69009;SHT31;56065;52.472;13.380;2023-11-21T08:56:57;7.53;85.96
69009;SHT31;56065;52.472;13.380;2023-11-21T08:59:24;7.60;86.08
69009;SHT31;56065;52.472;13.380;2023-11-21T09:01:49;7.69;86.03
69009;SHT31;56065;52.472;13.380;2023-11-21T09:04:15;7.71;85.78
69009;SHT31;56065;52.472;13.380;2023-11-21T09:06:40;7.73;85.88
69009;SHT31;56065;52.472;13.380;2023-11-21T09:09:06;7.73;85.02
69009;SHT31;56065;52.472;13.380;2023-11-21T09:11:34;7.61;85.67
69009;SHT31;56065;52.472;13.380;2023-11-21T09:14:01;7.51;85.36
69009;SHT31;56065;52.472;13.380;2023-11-21T09:16:26;7.50;85.63
69009;SHT31;56065;52.472;13.380;2023-11-21T09:18:51;7.60;86.05
69009;SHT31;56065;52.472;13.380;2023-11-21T09:21:17;7.66;85.29
69009;SHT31;56065;52.472;13.380;2023-11-21T09:23:44;7.54;85.64
69009;SHT31;56065;52.472;13.380;2023-11-21T09:26:10;7.59;86.45
69009;SHT31;56065;52.472;13.380;2023-11-21T09:28:35;7.67;86.11
69009;SHT31;56065;52.472;13.380;2023-11-21T09:31:06;7.64;85.91
69009;SHT31;56065;52.472;13.380;2023-11-21T09:33:34;7.56;86.46
69009;SHT31;56065;52.472;13.380;2023-11-21T09:35:59;7.59;86.27
69009;SHT31;56065;52.472;13.380;2023-11-21T09:38:25;7.69;85.63
69009;SHT31;56065;52.472;13.380;2023-11-21T09:40:51;7.81;85.67
69009;SHT31;56065;52.472;13.380;2023-11-21T09:43:18;7.74;85.69
69009;SHT31;56065;52.472;13.380;2023-11-21T09:45:48;7.70;85.50
69009;SHT31;56065;52.472;13.380;2023-11-21T09:48:18;7.73;85.67
69009;SHT31;56065;52.472;13.380;2023-11-21T09:50:47;7.74;86.17
69009;SHT31;56065;52.472;13.380;2023-11-21T09:53:20;7.61;86.55
69009;SHT31;56065;52.472;13.380;2023-11-21T09:55:53;7.59;86.30
69009;SHT31;56065;52.472;13.380;2023-11-21T09:58:20;7.57;86.71
69009;SHT31;56065;52.472;13.380;2023-11-21T10:00:48;7.60;85.98
69009;SHT31;56065;52.472;13.380;2023-11-21T10:03:15;7.54;84.86
69009;SHT31;56065;52.472;13.380;2023-11-21T10:05:42;7.63;85.54
69009;SHT31;56065;52.472;13.380;2023-11-21T10:08:09;7.69;84.81
69009;SHT31;56065;52.472;13.380;2023-11-21T10:10:43;7.54;84.53
69009;SHT31;56065;52.472;13.380;2023-11-21T10:13:11;7.66;85.05
69009;SHT31;56065;52.472;13.380;2023-11-21T10:15:37;7.71;85.24
69009;SHT31;56065;52.472;13.380;2023-11-21T10:18:04;7.67;84.86
69009;SHT31;56065;52.472;13.380;2023-11-21T10:20:32;7.67;84.83
69009;SHT31;56065;52.472;13.380;2023-11-21T10:22:59;7.66;85.08
69009;SHT31;56065;52.472;13.380;2023-11-21T10:25:26;7.40;85.34
69009;SHT31;56065;52.472;13.380;2023-11-21T10:27:57;7.22;85.16
69009;SHT31;56065;52.472;13.380;2023-11-21T10:30:27;7.27;85.75
69009;SHT31;56065;52.472;13.380;2023-11-21T10:32:59;7.24;85.98
69009;SHT31;56065;52.472;13.380;2023-11-21T10:35:38;7.16;86.24
69009;SHT31;56065;52.472;13.380;2023-11-21T10:38:04;7.36;86.01
69009;SHT31;56065;52.472;13.380;2023-11-21T10:40:29;7.40;85.86
69009;SHT31;56065;52.472;13.380;2023-11-21T10:42:54;7.37;86.09
69009;SHT31;56065;52.472;13.380;2023-11-21T10:45:30;7.36;86.16
69009;SHT31;56065;52.472;13.380;2023-11-21T10:47:56;7.34;86.64
69009;SHT31;56065;52.472;13.380;2023-11-21T10:50:21;7.33;87.11
69009;SHT31;56065;52.472;13.380;2023-11-21T10:52:48;7.33;87.03
69009;SHT31;56065;52.472;13.380;2023-11-21T10:55:19;7.23;87.50
69009;SHT31;56065;52.472;13.380;2023-11-21T10:57:48;7.15;87.43
69009;SHT31;56065;52.472;13.380;2023-11-21T11:00:15;7.16;87.64
69009;SHT31;56065;52.472;13.380;2023-11-21T11:02:41;7.16;87.68
69009;SHT31;56065;52.472;13.380;2023-11-21T11:05:07;7.29;87.65
69009;SHT31;56065;52.472;13.380;2023-11-21T11:07:38;7.42;87.34
69009;SHT31;56065;52.472;13.380;2023-11-21T11:10:08;7.24;87.59
69009;SHT31;56065;52.472;13.380;2023-11-21T11:12:41;7.27;87.99
69009;SHT31;56065;52.472;13.380;2023-11-21T11:15:08;7.15;87.59
69009;SHT31;56065;52.472;13.380;2023-11-21T11:17:36;7.24;87.87
69009;SHT31;56065;52.472;13.380;2023-11-21T11:20:04;7.29;87.78
69009;SHT31;56065;52.472;13.380;2023-11-21T11:25:29;7.20;86.98
69009;SHT31;56065;52.472;13.380;2023-11-21T11:28:08;7.29;86.60
69009;SHT31;56065;52.472;13.380;2023-11-21T11:33:12;7.22;86.12
69009;SHT31;56065;52.472;13.380;2023-11-21T11:35:54;7.18;86.63
69009;SHT31;56065;52.472;13.380;2023-11-21T11:38:21;7.32;86.62
69009;SHT31;56065;52.472;13.380;2023-11-21T11:40:53;7.40;86.43
69009;SHT31;56065;52.472;13.380;2023-11-21T11:43:25;7.34;86.98
69009;SHT31;56065;52.472;13.380;2023-11-21T11:45:55;7.49;86.19
69009;SHT31;56065;52.472;13.380;2023-11-21T11:48:21;7.44;86.38
69009;SHT31;56065;52.472;13.380;2023-11-21T11:51:04;7.43;86.61
69009;SHT31;56065;52.472;13.380;2023-11-21T11:53:38;7.50;87.19
69009;SHT31;56065;52.472;13.380;2023-11-21T11:56:24;7.19;86.49
69009;SHT31;56065;52.472;13.380;2023-11-21T11:58:51;7.46;86.56
69009;SHT31;56065;52.472;13.380;2023-11-21T12:01:21;7.37;86.31
69009;SHT31;56065;52.472;13.380;2023-11-21T12:06:45;7.39;86.03
69009;SHT31;56065;52.472;13.380;2023-11-21T12:09:37;7.20;86.36
69009;SHT31;56065;52.472;13.380;2023-11-21T12:12:03;6.99;86.32
69009;SHT31;56065;52.472;13.380;2023-11-21T12:14:30;7.15;85.93
69009;SHT31;56065;52.472;13.380;2023-11-21T12:16:56;7.13;86.22
69009;SHT31;56065;52.472;13.380;2023-11-21T12:19:21;7.06;86.41
69009;SHT31;56065;52.472;13.380;2023-11-21T12:21:47;7.09;86.19
69009;SHT31;56065;52.472;13.380;2023-11-21T12:24:14;7.12;86.36
69009;SHT31;56065;52.472;13.380;2023-11-21T12:26:42;7.10;85.91
69009;SHT31;56065;52.472;13.380;2023-11-21T12:29:07;6.89;86.36
69009;SHT31;56065;52.472;13.380;2023-11-21T12:31:33;6.91;87.30
69009;SHT31;56065;52.472;13.380;2023-11-21T12:34:00;6.82;87.29
69009;SHT31;56065;52.472;13.380;2023-11-21T12:36:25;6.89;87.27
69009;SHT31;56065;52.472;13.380;2023-11-21T12:38:51;6.98;87.41
69009;SHT31;56065;52.472;13.380;2023-11-21T12:41:16;6.92;87.27
69009;SHT31;56065;52.472;13.380;2023-11-21T12:43:44;7.01;87.50
69009;SHT31;56065;52.472;13.380;2023-11-21T12:46:10;6.84;87.71
69009;SHT31;56065;52.472;13.380;2023-11-21T12:48:41;7.01;88.37
69009;SHT31;56065;52.472;13.380;2023-11-21T12:51:13;6.95;88.09
69009;SHT31;56065;52.472;13.380;2023-11-21T12:53:41;6.89;88.19
69009;SHT31;56065;52.472;13.380;2023-11-21T12:56:10;7.10;88.03
69009;SHT31;56065;52.472;13.380;2023-11-21T12:58:40;7.23;87.33
69009;SHT31;56065;52.472;13.380;2023-11-21T13:01:07;7.19;87.53
69009;SHT31;56065;52.472;13.380;2023-11-21T13:03:40;7.34;87.68
69009;SHT31;56065;52.472;13.380;2023-11-21T13:06:07;7.18;87.42
69009;SHT31;56065;52.472;13.380;2023-11-21T13:08:33;7.34;87.61
69009;SHT31;56065;52.472;13.380;2023-11-21T13:10:58;7.26;87.84
69009;SHT31;56065;52.472;13.380;2023-11-21T13:13:25;7.26;87.56
69009;SHT31;56065;52.472;13.380;2023-11-21T13:16:11;7.30;87.45
69009;SHT31;56065;52.472;13.380;2023-11-21T13:18:36;7.22;87.08
69009;SHT31;56065;52.472;13.380;2023-11-21T13:21:04;7.20;87.01
69009;SHT31;56065;52.472;13.380;2023-11-21T13:23:35;7.36;86.75
69009;SHT31;56065;52.472;13.380;2023-11-21T13:26:04;7.22;86.80
69009;SHT31;56065;52.472;13.380;2023-11-21T13:28:30;7.26;87.52
69009;SHT31;56065;52.472;13.380;2023-11-21T13:30:58;7.26;86.83
69009;SHT31;56065;52.472;13.380;2023-11-21T13:33:34;6.92;86.85
69009;SHT31;56065;52.472;13.380;2023-11-21T13:36:03;6.91;87.04
69009;SHT31;56065;52.472;13.380;2023-11-21T13:38:32;6.93;87.14
69009;SHT31;56065;52.472;13.380;2023-11-21T13:40:59;6.75;86.48
69009;SHT31;56065;52.472;13.380;2023-11-21T13:43:25;6.68;86.92
69009;SHT31;56065;52.472;13.380;2023-11-21T13:45:52;6.63;86.82
69009;SHT31;56065;52.472;13.380;2023-11-21T13:48:27;6.42;87.07
69009;SHT31;56065;52.472;13.380;2023-11-21T13:51:13;6.57;87.58
69009;SHT31;56065;52.472;13.380;2023-11-21T13:53:46;6.44;87.26
69009;SHT31;56065;52.472;13.380;2023-11-21T13:56:15;6.54;87.27
69009;SHT31;56065;52.472;13.380;2023-11-21T13:58:44;6.42;86.74
69009;SHT31;56065;52.472;13.380;2023-11-21T14:01:13;6.51;86.88
69009;SHT31;56065;52.472;13.380;2023-11-21T14:04:00;6.42;86.77
69009;SHT31;56065;52.472;13.380;2023-11-21T14:06:43;6.37;87.53
69009;SHT31;56065;52.472;13.380;2023-11-21T14:09:16;6.48;88.25
69009;SHT31;56065;52.472;13.380;2023-11-21T14:11:54;6.41;87.01
69009;SHT31;56065;52.472;13.380;2023-11-21T14:14:22;6.27;86.77
69009;SHT31;56065;52.472;13.380;2023-11-21T14:16:49;6.13;86.83
69009;SHT31;56065;52.472;13.380;2023-11-21T14:19:14;6.05;87.04
69009;SHT31;56065;52.472;13.380;2023-11-21T14:21:44;6.02;87.15
69009;SHT31;56065;52.472;13.380;2023-11-21T14:24:10;6.05;87.52
69009;SHT31;56065;52.472;13.380;2023-11-21T14:26:41;5.90;87.88
69009;SHT31;56065;52.472;13.380;2023-11-21T14:29:07;5.90;87.53
69009;SHT31;56065;52.472;13.380;2023-11-21T14:31:33;5.96;87.82
69009;SHT31;56065;52.472;13.380;2023-11-21T14:33:59;5.75;87.19
69009;SHT31;56065;52.472;13.380;2023-11-21T14:36:27;5.92;88.11
69009;SHT31;56065;52.472;13.380;2023-11-21T14:38:52;5.88;87.66
69009;SHT31;56065;52.472;13.380;2023-11-21T14:41:18;5.93;87.77
69009;SHT31;56065;52.472;13.380;2023-11-21T14:43:44;5.80;87.24
69009;SHT31;56065;52.472;13.380;2023-11-21T14:46:11;5.80;87.94
69009;SHT31;56065;52.472;13.380;2023-11-21T14:48:41;5.78;87.41
69009;SHT31;56065;52.472;13.380;2023-11-21T14:51:13;5.68;87.77
69009;SHT31;56065;52.472;13.380;2023-11-21T14:53:53;5.70;87.66
69009;SHT31;56065;52.472;13.380;2023-11-21T14:56:22;5.66;88.33
69009;SHT31;56065;52.472;13.380;2023-11-21T14:58:56;5.61;88.05
69009;SHT31;56065;52.472;13.380;2023-11-21T15:01:23;5.48;87.83
69009;SHT31;56065;52.472;13.380;2023-11-21T15:04:07;5.51;88.31
69009;SHT31;56065;52.472;13.380;2023-11-21T15:06:32;5.52;87.86
69009;SHT31;56065;52.472;13.380;2023-11-21T15:08:58;5.49;87.78
69009;SHT31;56065;52.472;13.380;2023-11-21T15:11:33;5.37;87.57
69009;SHT31;56065;52.472;13.380;2023-11-21T15:13:59;5.54;87.07
69009;SHT31;56065;52.472;13.380;2023-11-21T15:16:25;5.55;87.65
69009;SHT31;56065;52.472;13.380;2023-11-21T15:18:54;5.58;87.74
69009;SHT31;56065;52.472;13.380;2023-11-21T15:21:20;5.32;87.13
69009;SHT31;56065;52.472;13.380;2023-11-21T15:23:47;5.49;86.88
69009;SHT31;56065;52.472;13.380;2023-11-21T15:26:12;5.30;87.11
69009;SHT31;56065;52.472;13.380;2023-11-21T15:28:38;5.41;86.92
69009;SHT31;56065;52.472;13.380;2023-11-21T15:31:03;5.23;86.97
69009;SHT31;56065;52.472;13.380;2023-11-21T15:33:29;5.27;87.04
69009;SHT31;56065;52.472;13.380;2023-11-21T15:35:55;5.31;86.73
69009;SHT31;56065;52.472;13.380;2023-11-21T15:38:20;5.13;86.28